sensor_id;sensor_type;location;lat;lon;timestamp;temperature;humidity
73643;DHT22;61938;48.652;9.292;2023-06-22T00:01:56;20.20;99.90
73643;DHT22;61938;48.652;9.292;2023-06-22T00:04:21;20.20;99.90
73643;DHT22;61938;48.652;9.292;2023-06-22T00:06:47;20.30;99.90
73643;DHT22;61938;48.652;9.292;2023-06-22T00:09:12;20.30;99.90
73643;DHT22;61938;48.652;9.292;2023-06-22T00:11:38;20.30;99.90
73643;DHT22;61938;48.652;9.292;2023-06-22T00:14:04;20.40;99.90
73643;DHT22;61938;48.652;9.292;2023-06-22T00:16:31;20.40;99.90
73643;DHT22;61938;48.652;9.292;2023-06-22T00:18:56;20.40;99.90
73643;DHT22;61938;48.652;9.292;2023-06-22T00:21:28;20.30;99.90
73643;DHT22;61938;48.652;9.292;2023-06-22T00:23:54;20.40;99.90
73643;DHT22;61938;48.652;9.292;2023-06-22T00:26:20;20.30;99.90
73643;DHT22;61938;48.652;9.292;2023-06-22T00:28:46;20.30;99.90
73643;DHT22;61938;48.652;9.292;2023-06-22T00:31:12;20.30;99.90
73643;DHT22;61938;48.652;9.292;2023-06-22T00:33:37;20.30;99.90
73643;DHT22;61938;48.652;9.292;2023-06-22T00:36:03;20.20;99.90
73643;DHT22;61938;48.652;9.292;2023-06-22T00:38:29;20.20;99.90
73643;DHT22;61938;48.652;9.292;2023-06-22T00:40:55;20.10;99.90
73643;DHT22;61938;48.652;9.292;2023-06-22T00:43:20;20.10;99.90
73643;DHT22;61938;48.652;9.292;2023-06-22T00:45:46;20.10;99.90
73643;DHT22;61938;48.652;9.292;2023-06-22T00:48:13;20.10;99.90
73643;DHT22;61938;48.652;9.292;2023-06-22T00:50:39;20.10;99.90
73643;DHT22;61938;48.652;9.292;2023-06-22T00:53:06;20.20;99.90
73643;DHT22;61938;48.652;9.292;2023-06-22T00:55:41;20.20;99.90
73643;DHT22;61938;48.652;9.292;2023-06-22T00:58:09;20.20;99.90
73643;DHT22;61938;48.652;9.292;2023-06-22T01:00:36;20.20;99.90
73643;DHT22;61938;48.652;9.292;2023-06-22T01:03:03;20.20;99.90
73643;DHT22;61938;48.652;9.292;2023-06-22T01:05:29;20.20;99.90
73643;DHT22;61938;48.652;9.292;2023-06-22T01:11:25;20.10;99.90
73643;DHT22;61938;48.652;9.292;2023-06-22T01:14:00;20.10;99.90
73643;DHT22;61938;48.652;9.292;2023-06-22T01:16:30;20.00;99.90
73643;DHT22;61938;48.652;9.292;2023-06-22T01:19:00;19.90;99.90
73643;DHT22;61938;48.652;9.292;2023-06-22T01:21:30;19.90;99.90
73643;DHT22;61938;48.652;9.292;2023-06-22T01:27:09;19.90;99.90
73643;DHT22;61938;48.652;9.292;2023-06-22T01:29:39;19.80;99.90
73643;DHT22;61938;48.652;9.292;2023-06-22T01:32:06;19.80;99.90
73643;DHT22;61938;48.652;9.292;2023-06-22T01:34:32;19.70;99.90
73643;DHT22;61938;48.652;9.292;2023-06-22T01:36:59;19.70;99.90
73643;DHT22;61938;48.652;9.292;2023-06-22T01:39:25;19.70;99.90
73643;DHT22;61938;48.652;9.292;2023-06-22T01:41:52;19.60;99.90
73643;DHT22;61938;48.652;9.292;2023-06-22T01:44:18;19.60;99.90
73643;DHT22;61938;48.652;9.292;2023-06-22T01:46:45;19.50;99.90
73643;DHT22;61938;48.652;9.292;2023-06-22T01:49:11;19.60;99.90
73643;DHT22;61938;48.652;9.292;2023-06-22T01:51:36;19.50;99.90
73643;DHT22;61938;48.652;9.292;2023-06-22T01:54:02;19.50;99.90
73643;DHT22;61938;48.652;9.292;2023-06-22T01:56:28;19.40;99.90
73643;DHT22;61938;48.652;9.292;2023-06-22T02:01:28;19.30;99.90
73643;DHT22;61938;48.652;9.292;2023-06-22T02:04:24;19.20;99.90
73643;DHT22;61938;48.652;9.292;2023-06-22T02:06:56;19.20;99.90
73643;DHT22;61938;48.652;9.292;2023-06-22T02:09:23;19.20;99.90
73643;DHT22;61938;48.652;9.292;2023-06-22T02:11:52;19.20;99.90
73643;DHT22;61938;48.652;9.292;2023-06-22T02:14:21;19.30;99.90
73643;DHT22;61938;48.652;9.292;2023-06-22T02:16:47;19.30;99.90
73643;DHT22;61938;48.652;9.292;2023-06-22T02:19:12;19.30;99.90
73643;DHT22;61938;48.652;9.292;2023-06-22T02:21:41;19.40;99.90
73643;DHT22;61938;48.652;9.292;2023-06-22T02:24:07;19.40;99.90
73643;DHT22;61938;48.652;9.292;2023-06-22T02:26:32;19.40;99.90
73643;DHT22;61938;48.652;9.292;2023-06-22T02:28:58;19.40;99.90
73643;DHT22;61938;48.652;9.292;2023-06-22T02:31:23;19.40;99.90
73643;DHT22;61938;48.652;9.292;2023-06-22T02:33:58;19.30;99.90
73643;DHT22;61938;48.652;9.292;2023-06-22T02:36:24;19.30;99.90
73643;DHT22;61938;48.652;9.292;2023-06-22T02:38:52;19.20;99.90
73643;DHT22;61938;48.652;9.292;2023-06-22T02:41:17;19.20;99.90
73643;DHT22;61938;48.652;9.292;2023-06-22T02:43:46;19.20;99.90
73643;DHT22;61938;48.652;9.292;2023-06-22T02:46:13;19.20;99.90
73643;DHT22;61938;48.652;9.292;2023-06-22T02:48:40;19.10;99.90
73643;DHT22;61938;48.652;9.292;2023-06-22T02:51:05;19.10;99.90
73643;DHT22;61938;48.652;9.292;2023-06-22T02:53:31;19.20;99.90
73643;DHT22;61938;48.652;9.292;2023-06-22T02:55:57;19.10;99.90
73643;DHT22;61938;48.652;9.292;2023-06-22T02:58:23;19.10;99.90
73643;DHT22;61938;48.652;9.292;2023-06-22T03:00:49;19.00;99.90
73643;DHT22;61938;48.652;9.292;2023-06-22T03:03:19;19.00;99.90
73643;DHT22;61938;48.652;9.292;2023-06-22T03:05:44;19.00;99.90
73643;DHT22;61938;48.652;9.292;2023-06-22T03:08:10;19.00;99.90
73643;DHT22;61938;48.652;9.292;2023-06-22T03:10:35;19.10;99.90
73643;DHT22;61938;48.652;9.292;2023-06-22T03:13:01;19.10;99.90
73643;DHT22;61938;48.652;9.292;2023-06-22T03:15:26;19.00;99.90
73643;DHT22;61938;48.652;9.292;2023-06-22T03:17:54;19.00;99.90
73643;DHT22;61938;48.652;9.292;2023-06-22T03:20:20;19.00;99.90
73643;DHT22;61938;48.652;9.292;2023-06-22T03:22:46;19.00;99.90
73643;DHT22;61938;48.652;9.292;2023-06-22T03:25:11;18.90;99.90
73643;DHT22;61938;48.652;9.292;2023-06-22T03:27:41;18.90;99.90
73643;DHT22;61938;48.652;9.292;2023-06-22T03:30:09;18.80;99.90
73643;DHT22;61938;48.652;9.292;2023-06-22T03:32:35;18.80;99.90
73643;DHT22;61938;48.652;9.292;2023-06-22T03:35:00;18.70;99.90
73643;DHT22;61938;48.652;9.292;2023-06-22T03:37:27;18.70;99.90
73643;DHT22;61938;48.652;9.292;2023-06-22T03:39:52;18.60;99.90
73643;DHT22;61938;48.652;9.292;2023-06-22T03:42:18;18.60;99.90
73643;DHT22;61938;48.652;9.292;2023-06-22T03:44:44;18.50;99.90
73643;DHT22;61938;48.652;9.292;2023-06-22T03:47:09;18.50;99.90
73643;DHT22;61938;48.652;9.292;2023-06-22T03:49:35;18.50;99.90
73643;DHT22;61938;48.652;9.292;2023-06-22T03:52:01;18.60;99.90
73643;DHT22;61938;48.652;9.292;2023-06-22T03:54:29;18.60;99.90
73643;DHT22;61938;48.652;9.292;2023-06-22T03:56:54;18.60;99.90
73643;DHT22;61938;48.652;9.292;2023-06-22T03:59:20;18.70;99.90
73643;DHT22;61938;48.652;9.292;2023-06-22T04:01:45;18.70;99.90
73643;DHT22;61938;48.652;9.292;2023-06-22T04:04:11;18.70;99.90
73643;DHT22;61938;48.652;9.292;2023-06-22T04:06:38;18.70;99.90
73643;DHT22;61938;48.652;9.292;2023-06-22T04:09:05;18.70;99.90
73643;DHT22;61938;48.652;9.292;2023-06-22T04:11:30;18.80;99.90
73643;DHT22;61938;48.652;9.292;2023-06-22T04:13:56;18.80;99.90
73643;DHT22;61938;48.652;9.292;2023-06-22T04:16:21;18.90;99.90
73643;DHT22;61938;48.652;9.292;2023-06-22T04:18:47;19.00;99.90
73643;DHT22;61938;48.652;9.292;2023-06-22T04:21:13;19.00;99.90
73643;DHT22;61938;48.652;9.292;2023-06-22T04:23:38;19.10;99.90
73643;DHT22;61938;48.652;9.292;2023-06-22T04:26:04;19.10;99.90
73643;DHT22;61938;48.652;9.292;2023-06-22T04:28:29;19.20;99.90
73643;DHT22;61938;48.652;9.292;2023-06-22T04:31:01;19.30;99.90
73643;DHT22;61938;48.652;9.292;2023-06-22T04:33:27;19.30;99.90
73643;DHT22;61938;48.652;9.292;2023-06-22T04:35:55;19.30;99.90
73643;DHT22;61938;48.652;9.292;2023-06-22T04:38:22;19.40;99.90
73643;DHT22;61938;48.652;9.292;2023-06-22T04:40:48;19.40;99.90
73643;DHT22;61938;48.652;9.292;2023-06-22T04:43:13;19.50;99.90
73643;DHT22;61938;48.652;9.292;2023-06-22T04:45:39;19.50;99.90
73643;DHT22;61938;48.652;9.292;2023-06-22T04:48:05;19.60;99.90
73643;DHT22;61938;48.652;9.292;2023-06-22T04:50:31;19.70;99.90
73643;DHT22;61938;48.652;9.292;2023-06-22T04:52:56;19.70;99.90
73643;DHT22;61938;48.652;9.292;2023-06-22T04:55:22;19.80;99.90
73643;DHT22;61938;48.652;9.292;2023-06-22T04:57:48;19.90;99.90
73643;DHT22;61938;48.652;9.292;2023-06-22T05:00:18;20.00;99.90
73643;DHT22;61938;48.652;9.292;2023-06-22T05:02:45;20.00;99.90
73643;DHT22;61938;48.652;9.292;2023-06-22T05:05:11;20.10;99.90
73643;DHT22;61938;48.652;9.292;2023-06-22T05:07:41;20.20;99.90
73643;DHT22;61938;48.652;9.292;2023-06-22T05:10:11;20.30;99.90
73643;DHT22;61938;48.652;9.292;2023-06-22T05:12:38;20.30;99.90
73643;DHT22;61938;48.652;9.292;2023-06-22T05:15:04;20.50;99.90
73643;DHT22;61938;48.652;9.292;2023-06-22T05:17:30;20.60;99.90
73643;DHT22;61938;48.652;9.292;2023-06-22T05:19:55;20.70;99.90
73643;DHT22;61938;48.652;9.292;2023-06-22T05:22:21;20.70;99.90
73643;DHT22;61938;48.652;9.292;2023-06-22T05:24:46;20.70;99.90
73643;DHT22;61938;48.652;9.292;2023-06-22T05:27:13;20.80;99.90
73643;DHT22;61938;48.652;9.292;2023-06-22T05:29:39;20.90;99.90
73643;DHT22;61938;48.652;9.292;2023-06-22T05:32:05;20.90;99.90
73643;DHT22;61938;48.652;9.292;2023-06-22T05:34:31;21.00;99.90
73643;DHT22;61938;48.652;9.292;2023-06-22T05:36:56;21.20;99.90
73643;DHT22;61938;48.652;9.292;2023-06-22T05:39:24;21.40;99.90
73643;DHT22;61938;48.652;9.292;2023-06-22T05:41:49;21.50;99.90
73643;DHT22;61938;48.652;9.292;2023-06-22T05:44:15;21.60;99.90
73643;DHT22;61938;48.652;9.292;2023-06-22T05:46:42;21.70;99.90
73643;DHT22;61938;48.652;9.292;2023-06-22T05:49:12;21.90;99.90
73643;DHT22;61938;48.652;9.292;2023-06-22T05:51:38;22.00;99.90
73643;DHT22;61938;48.652;9.292;2023-06-22T05:54:04;22.10;99.90
73643;DHT22;61938;48.652;9.292;2023-06-22T05:56:29;22.30;99.90
73643;DHT22;61938;48.652;9.292;2023-06-22T05:58:55;22.50;99.90
73643;DHT22;61938;48.652;9.292;2023-06-22T06:01:20;22.70;99.90
73643;DHT22;61938;48.652;9.292;2023-06-22T06:03:46;22.70;99.90
73643;DHT22;61938;48.652;9.292;2023-06-22T06:06:12;22.90;99.90
73643;DHT22;61938;48.652;9.292;2023-06-22T06:08:38;23.00;99.90
73643;DHT22;61938;48.652;9.292;2023-06-22T06:11:04;23.10;99.90
73643;DHT22;61938;48.652;9.292;2023-06-22T06:13:29;23.20;99.90
73643;DHT22;61938;48.652;9.292;2023-06-22T06:15:56;23.40;99.90
73643;DHT22;61938;48.652;9.292;2023-06-22T06:18:22;23.60;99.90
73643;DHT22;61938;48.652;9.292;2023-06-22T06:20:48;23.80;99.90
73643;DHT22;61938;48.652;9.292;2023-06-22T06:23:14;23.80;99.90
73643;DHT22;61938;48.652;9.292;2023-06-22T06:25:39;24.00;99.90
73643;DHT22;61938;48.652;9.292;2023-06-22T06:28:05;24.20;99.90
73643;DHT22;61938;48.652;9.292;2023-06-22T06:30:30;24.30;99.90
73643;DHT22;61938;48.652;9.292;2023-06-22T06:32:56;24.40;99.90
73643;DHT22;61938;48.652;9.292;2023-06-22T06:35:22;24.60;99.90
73643;DHT22;61938;48.652;9.292;2023-06-22T06:37:49;24.60;99.90
73643;DHT22;61938;48.652;9.292;2023-06-22T06:40:16;24.80;99.90
73643;DHT22;61938;48.652;9.292;2023-06-22T06:42:43;25.10;99.90
73643;DHT22;61938;48.652;9.292;2023-06-22T06:45:11;25.40;99.90
73643;DHT22;61938;48.652;9.292;2023-06-22T06:47:37;25.70;99.90
73643;DHT22;61938;48.652;9.292;2023-06-22T06:50:04;25.80;99.90
73643;DHT22;61938;48.652;9.292;2023-06-22T06:52:30;25.80;99.90
73643;DHT22;61938;48.652;9.292;2023-06-22T06:54:56;26.00;99.90
73643;DHT22;61938;48.652;9.292;2023-06-22T06:57:21;25.90;99.90
73643;DHT22;61938;48.652;9.292;2023-06-22T06:59:48;26.00;99.90
73643;DHT22;61938;48.652;9.292;2023-06-22T07:02:15;26.20;99.90
73643;DHT22;61938;48.652;9.292;2023-06-22T07:04:40;26.40;99.90
73643;DHT22;61938;48.652;9.292;2023-06-22T07:07:06;26.50;99.90
73643;DHT22;61938;48.652;9.292;2023-06-22T07:09:32;26.50;99.90
73643;DHT22;61938;48.652;9.292;2023-06-22T07:11:58;26.70;99.90
73643;DHT22;61938;48.652;9.292;2023-06-22T07:14:23;26.70;99.90
73643;DHT22;61938;48.652;9.292;2023-06-22T07:16:49;26.80;99.90
73643;DHT22;61938;48.652;9.292;2023-06-22T07:19:14;27.10;99.90
73643;DHT22;61938;48.652;9.292;2023-06-22T07:21:40;27.20;99.90
73643;DHT22;61938;48.652;9.292;2023-06-22T07:24:06;27.20;99.90
73643;DHT22;61938;48.652;9.292;2023-06-22T07:26:33;27.30;99.90
73643;DHT22;61938;48.652;9.292;2023-06-22T07:28:58;27.40;99.90
73643;DHT22;61938;48.652;9.292;2023-06-22T07:31:24;27.30;99.90
73643;DHT22;61938;48.652;9.292;2023-06-22T07:33:50;27.50;99.90
73643;DHT22;61938;48.652;9.292;2023-06-22T07:36:17;27.60;99.90
73643;DHT22;61938;48.652;9.292;2023-06-22T07:38:42;27.80;99.90
73643;DHT22;61938;48.652;9.292;2023-06-22T07:41:08;27.80;99.90
73643;DHT22;61938;48.652;9.292;2023-06-22T07:43:33;28.00;99.90
73643;DHT22;61938;48.652;9.292;2023-06-22T07:46:05;28.20;99.90
73643;DHT22;61938;48.652;9.292;2023-06-22T07:48:30;28.10;99.90
73643;DHT22;61938;48.652;9.292;2023-06-22T07:50:56;28.40;99.90
73643;DHT22;61938;48.652;9.292;2023-06-22T07:53:21;28.70;99.90
73643;DHT22;61938;48.652;9.292;2023-06-22T07:55:48;29.00;99.90
73643;DHT22;61938;48.652;9.292;2023-06-22T07:58:14;29.00;99.90
73643;DHT22;61938;48.652;9.292;2023-06-22T08:00:41;29.20;99.90
73643;DHT22;61938;48.652;9.292;2023-06-22T08:03:06;29.30;99.90
73643;DHT22;61938;48.652;9.292;2023-06-22T08:05:32;29.30;99.90
73643;DHT22;61938;48.652;9.292;2023-06-22T08:07:57;29.30;99.90
73643;DHT22;61938;48.652;9.292;2023-06-22T08:10:23;29.30;99.90
73643;DHT22;61938;48.652;9.292;2023-06-22T08:12:49;29.30;99.90
73643;DHT22;61938;48.652;9.292;2023-06-22T08:15:14;29.50;99.90
73643;DHT22;61938;48.652;9.292;2023-06-22T08:17:40;29.60;99.90
73643;DHT22;61938;48.652;9.292;2023-06-22T08:20:07;29.70;99.90
73643;DHT22;61938;48.652;9.292;2023-06-22T08:22:37;29.90;99.90
73643;DHT22;61938;48.652;9.292;2023-06-22T08:25:03;29.90;99.90
73643;DHT22;61938;48.652;9.292;2023-06-22T08:27:30;30.00;99.90
73643;DHT22;61938;48.652;9.292;2023-06-22T08:30:00;30.00;99.90
73643;DHT22;61938;48.652;9.292;2023-06-22T08:32:29;30.00;99.90
73643;DHT22;61938;48.652;9.292;2023-06-22T08:34:56;30.00;99.90
73643;DHT22;61938;48.652;9.292;2023-06-22T08:37:22;30.00;99.90
73643;DHT22;61938;48.652;9.292;2023-06-22T08:39:59;30.10;99.90
73643;DHT22;61938;48.652;9.292;2023-06-22T08:42:26;30.40;99.90
73643;DHT22;61938;48.652;9.292;2023-06-22T08:44:52;30.40;99.90
73643;DHT22;61938;48.652;9.292;2023-06-22T08:47:18;30.50;99.90
73643;DHT22;61938;48.652;9.292;2023-06-22T08:49:44;30.30;99.90
73643;DHT22;61938;48.652;9.292;2023-06-22T08:52:09;30.60;99.90
73643;DHT22;61938;48.652;9.292;2023-06-22T08:54:35;30.50;99.90
73643;DHT22;61938;48.652;9.292;2023-06-22T08:57:02;30.70;99.90
73643;DHT22;61938;48.652;9.292;2023-06-22T08:59:27;30.70;99.90
73643;DHT22;61938;48.652;9.292;2023-06-22T09:01:53;30.00;99.90
73643;DHT22;61938;48.652;9.292;2023-06-22T09:04:19;30.50;99.90
73643;DHT22;61938;48.652;9.292;2023-06-22T09:06:47;30.80;99.90
73643;DHT22;61938;48.652;9.292;2023-06-22T09:09:13;31.30;99.90
73643;DHT22;61938;48.652;9.292;2023-06-22T09:11:39;31.30;99.90
73643;DHT22;61938;48.652;9.292;2023-06-22T09:14:05;30.90;99.90
73643;DHT22;61938;48.652;9.292;2023-06-22T09:16:31;31.10;99.90
73643;DHT22;61938;48.652;9.292;2023-06-22T09:18:56;30.80;99.90
73643;DHT22;61938;48.652;9.292;2023-06-22T09:21:22;30.50;99.90
73643;DHT22;61938;48.652;9.292;2023-06-22T09:23:48;30.50;99.90
73643;DHT22;61938;48.652;9.292;2023-06-22T09:26:17;30.80;99.90
73643;DHT22;61938;48.652;9.292;2023-06-22T09:28:42;30.80;99.90
73643;DHT22;61938;48.652;9.292;2023-06-22T09:31:08;31.10;99.90
73643;DHT22;61938;48.652;9.292;2023-06-22T09:33:33;31.20;99.90
73643;DHT22;61938;48.652;9.292;2023-06-22T09:35:58;31.30;99.90
73643;DHT22;61938;48.652;9.292;2023-06-22T09:38:24;31.30;99.90
73643;DHT22;61938;48.652;9.292;2023-06-22T09:40:49;31.10;99.90
73643;DHT22;61938;48.652;9.292;2023-06-22T09:43:15;31.00;99.90
73643;DHT22;61938;48.652;9.292;2023-06-22T09:45:40;31.00;99.90
73643;DHT22;61938;48.652;9.292;2023-06-22T09:48:06;31.60;99.90
73643;DHT22;61938;48.652;9.292;2023-06-22T09:50:31;32.10;99.90
73643;DHT22;61938;48.652;9.292;2023-06-22T09:52:57;32.20;99.90
73643;DHT22;61938;48.652;9.292;2023-06-22T09:55:22;32.20;99.90
73643;DHT22;61938;48.652;9.292;2023-06-22T09:57:48;32.20;99.90
73643;DHT22;61938;48.652;9.292;2023-06-22T10:00:16;32.40;99.90
73643;DHT22;61938;48.652;9.292;2023-06-22T10:02:42;32.50;99.90
73643;DHT22;61938;48.652;9.292;2023-06-22T10:05:08;32.40;99.90
73643;DHT22;61938;48.652;9.292;2023-06-22T10:07:34;32.50;99.90
73643;DHT22;61938;48.652;9.292;2023-06-22T10:09:59;32.40;99.90
73643;DHT22;61938;48.652;9.292;2023-06-22T10:12:27;32.20;99.90
73643;DHT22;61938;48.652;9.292;2023-06-22T10:14:53;31.60;99.90
73643;DHT22;61938;48.652;9.292;2023-06-22T10:17:18;31.50;99.90
73643;DHT22;61938;48.652;9.292;2023-06-22T10:19:44;31.10;99.90
73643;DHT22;61938;48.652;9.292;2023-06-22T10:22:09;31.10;99.90
73643;DHT22;61938;48.652;9.292;2023-06-22T10:24:35;30.80;99.90
73643;DHT22;61938;48.652;9.292;2023-06-22T10:27:00;31.00;99.90
73643;DHT22;61938;48.652;9.292;2023-06-22T10:29:26;31.60;99.90
73643;DHT22;61938;48.652;9.292;2023-06-22T10:31:51;32.00;99.90
73643;DHT22;61938;48.652;9.292;2023-06-22T10:34:17;32.20;99.90
73643;DHT22;61938;48.652;9.292;2023-06-22T10:36:42;32.60;99.90
73643;DHT22;61938;48.652;9.292;2023-06-22T10:39:08;32.20;99.90
73643;DHT22;61938;48.652;9.292;2023-06-22T10:41:34;32.30;99.90
73643;DHT22;61938;48.652;9.292;2023-06-22T10:44:00;32.40;99.90
73643;DHT22;61938;48.652;9.292;2023-06-22T10:46:25;32.70;99.90
73643;DHT22;61938;48.652;9.292;2023-06-22T10:48:51;32.70;99.90
73643;DHT22;61938;48.652;9.292;2023-06-22T10:51:19;32.60;99.90
73643;DHT22;61938;48.652;9.292;2023-06-22T10:53:45;32.40;99.90
73643;DHT22;61938;48.652;9.292;2023-06-22T10:56:10;32.30;99.90
73643;DHT22;61938;48.652;9.292;2023-06-22T10:58:35;32.10;99.90
73643;DHT22;61938;48.652;9.292;2023-06-22T11:01:01;31.10;99.90
73643;DHT22;61938;48.652;9.292;2023-06-22T11:03:28;32.20;99.90
73643;DHT22;61938;48.652;9.292;2023-06-22T11:05:53;32.20;99.90
73643;DHT22;61938;48.652;9.292;2023-06-22T11:08:19;32.10;99.90
73643;DHT22;61938;48.652;9.292;2023-06-22T11:10:44;32.20;99.90
73643;DHT22;61938;48.652;9.292;2023-06-22T11:13:10;32.40;99.90
73643;DHT22;61938;48.652;9.292;2023-06-22T11:15:36;32.30;99.90
73643;DHT22;61938;48.652;9.292;2023-06-22T11:18:02;32.20;99.90
73643;DHT22;61938;48.652;9.292;2023-06-22T11:20:30;32.40;99.90
73643;DHT22;61938;48.652;9.292;2023-06-22T11:22:56;32.20;99.90
73643;DHT22;61938;48.652;9.292;2023-06-22T11:25:21;32.30;99.90
73643;DHT22;61938;48.652;9.292;2023-06-22T11:27:47;32.20;99.90
73643;DHT22;61938;48.652;9.292;2023-06-22T11:30:12;32.20;99.90
73643;DHT22;61938;48.652;9.292;2023-06-22T11:32:38;32.40;99.90
73643;DHT22;61938;48.652;9.292;2023-06-22T11:35:03;32.40;99.90
73643;DHT22;61938;48.652;9.292;2023-06-22T11:37:29;32.20;99.90
73643;DHT22;61938;48.652;9.292;2023-06-22T11:39:54;32.00;99.90
73643;DHT22;61938;48.652;9.292;2023-06-22T11:42:20;31.90;99.60
73643;DHT22;61938;48.652;9.292;2023-06-22T11:44:45;31.90;99.90
73643;DHT22;61938;48.652;9.292;2023-06-22T11:47:11;31.70;99.90
73643;DHT22;61938;48.652;9.292;2023-06-22T11:49:37;31.50;99.90
73643;DHT22;61938;48.652;9.292;2023-06-22T11:52:02;31.60;99.90
73643;DHT22;61938;48.652;9.292;2023-06-22T11:54:28;31.50;99.90
73643;DHT22;61938;48.652;9.292;2023-06-22T11:56:53;31.50;99.90
73643;DHT22;61938;48.652;9.292;2023-06-22T11:59:19;31.30;99.90
73643;DHT22;61938;48.652;9.292;2023-06-22T12:01:44;31.30;99.90
73643;DHT22;61938;48.652;9.292;2023-06-22T12:04:10;31.50;99.90
73643;DHT22;61938;48.652;9.292;2023-06-22T12:06:38;32.10;99.90
73643;DHT22;61938;48.652;9.292;2023-06-22T12:09:06;32.40;99.90
73643;DHT22;61938;48.652;9.292;2023-06-22T12:11:32;32.60;99.90
73643;DHT22;61938;48.652;9.292;2023-06-22T12:13:57;32.40;99.90
73643;DHT22;61938;48.652;9.292;2023-06-22T12:16:27;32.30;99.90
73643;DHT22;61938;48.652;9.292;2023-06-22T12:18:53;32.00;99.00
73643;DHT22;61938;48.652;9.292;2023-06-22T12:21:19;31.90;99.90
73643;DHT22;61938;48.652;9.292;2023-06-22T12:23:44;31.80;99.40
73643;DHT22;61938;48.652;9.292;2023-06-22T12:26:10;31.70;99.90
73643;DHT22;61938;48.652;9.292;2023-06-22T12:28:35;31.70;99.90
73643;DHT22;61938;48.652;9.292;2023-06-22T12:31:01;31.70;99.90
73643;DHT22;61938;48.652;9.292;2023-06-22T12:33:26;31.60;99.90
73643;DHT22;61938;48.652;9.292;2023-06-22T12:35:51;31.50;99.90
73643;DHT22;61938;48.652;9.292;2023-06-22T12:38:17;31.40;99.90
73643;DHT22;61938;48.652;9.292;2023-06-22T12:40:43;31.20;99.90
73643;DHT22;61938;48.652;9.292;2023-06-22T12:43:08;31.00;99.90
73643;DHT22;61938;48.652;9.292;2023-06-22T12:45:34;30.80;99.90
73643;DHT22;61938;48.652;9.292;2023-06-22T12:48:00;30.60;99.90
73643;DHT22;61938;48.652;9.292;2023-06-22T12:50:25;30.60;99.90
73643;DHT22;61938;48.652;9.292;2023-06-22T12:52:51;30.60;99.90
73643;DHT22;61938;48.652;9.292;2023-06-22T12:55:16;30.60;99.90
73643;DHT22;61938;48.652;9.292;2023-06-22T12:57:42;30.70;99.90
73643;DHT22;61938;48.652;9.292;2023-06-22T13:00:08;30.70;99.90
73643;DHT22;61938;48.652;9.292;2023-06-22T13:02:35;30.50;99.90
73643;DHT22;61938;48.652;9.292;2023-06-22T13:05:01;30.50;99.90
73643;DHT22;61938;48.652;9.292;2023-06-22T13:07:27;30.50;99.90
73643;DHT22;61938;48.652;9.292;2023-06-22T13:09:53;30.60;99.90
73643;DHT22;61938;48.652;9.292;2023-06-22T13:12:19;30.60;99.90
73643;DHT22;61938;48.652;9.292;2023-06-22T13:14:45;30.60;99.90
73643;DHT22;61938;48.652;9.292;2023-06-22T13:17:12;30.60;99.90
73643;DHT22;61938;48.652;9.292;2023-06-22T13:19:38;30.80;99.90
73643;DHT22;61938;48.652;9.292;2023-06-22T13:22:03;31.00;99.90
73643;DHT22;61938;48.652;9.292;2023-06-22T13:24:29;31.20;99.90
73643;DHT22;61938;48.652;9.292;2023-06-22T13:26:54;31.30;99.90
73643;DHT22;61938;48.652;9.292;2023-06-22T13:29:20;31.40;99.90
73643;DHT22;61938;48.652;9.292;2023-06-22T13:31:46;31.50;99.90
73643;DHT22;61938;48.652;9.292;2023-06-22T13:34:11;31.50;99.90
73643;DHT22;61938;48.652;9.292;2023-06-22T13:36:37;31.60;99.90
73643;DHT22;61938;48.652;9.292;2023-06-22T13:39:03;31.60;99.90
73643;DHT22;61938;48.652;9.292;2023-06-22T13:41:29;31.60;99.90
73643;DHT22;61938;48.652;9.292;2023-06-22T13:43:54;31.60;99.90
73643;DHT22;61938;48.652;9.292;2023-06-22T13:46:20;31.60;99.90
73643;DHT22;61938;48.652;9.292;2023-06-22T13:48:46;31.50;99.90
73643;DHT22;61938;48.652;9.292;2023-06-22T13:51:11;31.50;99.70
73643;DHT22;61938;48.652;9.292;2023-06-22T13:53:36;31.60;99.90
73643;DHT22;61938;48.652;9.292;2023-06-22T13:56:02;31.60;99.90
73643;DHT22;61938;48.652;9.292;2023-06-22T13:58:28;31.60;98.80
73643;DHT22;61938;48.652;9.292;2023-06-22T14:00:53;31.60;99.90
73643;DHT22;61938;48.652;9.292;2023-06-22T14:03:19;31.60;97.50
73643;DHT22;61938;48.652;9.292;2023-06-22T14:05:44;31.60;97.30
73643;DHT22;61938;48.652;9.292;2023-06-22T14:08:11;31.70;99.60
73643;DHT22;61938;48.652;9.292;2023-06-22T14:10:37;31.60;97.70
73643;DHT22;61938;48.652;9.292;2023-06-22T14:13:02;31.60;98.70
73643;DHT22;61938;48.652;9.292;2023-06-22T14:15:31;31.50;98.60
73643;DHT22;61938;48.652;9.292;2023-06-22T14:17:56;31.40;99.30
73643;DHT22;61938;48.652;9.292;2023-06-22T14:20:22;31.40;99.30
73643;DHT22;61938;48.652;9.292;2023-06-22T14:22:47;31.10;99.20
73643;DHT22;61938;48.652;9.292;2023-06-22T14:25:13;31.10;99.20
73643;DHT22;61938;48.652;9.292;2023-06-22T14:27:38;31.00;99.90
73643;DHT22;61938;48.652;9.292;2023-06-22T14:30:04;31.00;99.90
73643;DHT22;61938;48.652;9.292;2023-06-22T14:32:30;31.10;99.30
73643;DHT22;61938;48.652;9.292;2023-06-22T14:34:56;31.20;99.80
73643;DHT22;61938;48.652;9.292;2023-06-22T14:37:21;31.40;99.90
73643;DHT22;61938;48.652;9.292;2023-06-22T14:39:47;31.50;99.90
73643;DHT22;61938;48.652;9.292;2023-06-22T14:42:12;31.70;99.50
73643;DHT22;61938;48.652;9.292;2023-06-22T14:44:37;31.70;98.80
73643;DHT22;61938;48.652;9.292;2023-06-22T14:47:03;31.60;99.90
73643;DHT22;61938;48.652;9.292;2023-06-22T14:49:29;31.60;99.10
73643;DHT22;61938;48.652;9.292;2023-06-22T14:51:54;31.50;99.90
73643;DHT22;61938;48.652;9.292;2023-06-22T14:54:20;31.70;99.50
73643;DHT22;61938;48.652;9.292;2023-06-22T14:56:45;31.90;99.90
73643;DHT22;61938;48.652;9.292;2023-06-22T14:59:12;32.00;99.90
73643;DHT22;61938;48.652;9.292;2023-06-22T15:01:37;31.90;99.90
73643;DHT22;61938;48.652;9.292;2023-06-22T15:04:03;31.80;99.90
73643;DHT22;61938;48.652;9.292;2023-06-22T15:06:28;31.70;99.80
73643;DHT22;61938;48.652;9.292;2023-06-22T15:08:54;31.60;99.70
73643;DHT22;61938;48.652;9.292;2023-06-22T15:11:20;31.50;99.60
73643;DHT22;61938;48.652;9.292;2023-06-22T15:13:45;31.30;99.70
73643;DHT22;61938;48.652;9.292;2023-06-22T15:16:11;31.20;99.10
73643;DHT22;61938;48.652;9.292;2023-06-22T15:18:37;31.30;99.90
73643;DHT22;61938;48.652;9.292;2023-06-22T15:21:05;31.50;99.30
73643;DHT22;61938;48.652;9.292;2023-06-22T15:23:31;31.50;98.30
73643;DHT22;61938;48.652;9.292;2023-06-22T15:25:58;31.60;96.50
73643;DHT22;61938;48.652;9.292;2023-06-22T15:28:24;31.60;94.20
73643;DHT22;61938;48.652;9.292;2023-06-22T15:30:50;31.50;91.80
73643;DHT22;61938;48.652;9.292;2023-06-22T15:33:16;31.20;88.60